»·PEaware :: N419TW KRNM-KAVX

N419TW :: KRNM-KAVX

FLIGHT INFORMATION

Flight Status: Arrived
Operator: Privately registered:
United States
More flights under this callsign
Pilot: Lukas T. (14661)
Aircraft: CESSNA 172 SKYHAWK
(C172)
More flights by this aircraft type
Origin: KRNM Ramona
United States
Destination: KAVX Catalina
United States
More flights between these airports :: More routes between these airports
Route: OCN
File this flight plan on PilotEdge
Remarks:
Altitude:
(Current/Filed)
4,500ft
Speed:
(Current/Filed)
110kts
Departed: 28-Sep-20 07:56 AM
Arrived: 28-Sep-20 08:40 AM
Distance/Time
Traveled:
79nm/0:44
Distance/Time
To Go:
Arrived

Flight Plot

Page will automatically refresh every two minutes.

Flight plan parsing failed; only flown route is shown


Map Options




Map Legend


Flown Route
Filed Route
Departure Airport
Arrival Airport
Navaid (VOR, NDB)
Fix

Horizontal Profiles

Position Reports

Time Latitude Longitude Heading Altitude Ground
Speed
28-Sep-20 07:21 33.039293 -116.908029 275 1396ft 0kts
28-Sep-20 07:22 33.039293 -116.908029 275 1396ft 0kts
28-Sep-20 07:23 33.039293 -116.908029 275 1396ft 0kts
28-Sep-20 07:24 33.039293 -116.908029 275 1396ft 0kts
28-Sep-20 07:25 33.039293 -116.908029 275 1396ft 0kts
28-Sep-20 07:27 33.039293 -116.908029 275 1396ft 0kts
28-Sep-20 07:28 33.039293 -116.908029 275 1396ft 0kts
28-Sep-20 07:29 33.039293 -116.908029 275 1396ft 0kts
28-Sep-20 07:30 33.039293 -116.908029 275 1396ft 0kts
28-Sep-20 07:31 33.039293 -116.908029 275 1396ft 0kts
28-Sep-20 07:32 33.039293 -116.908029 275 1396ft 0kts
28-Sep-20 07:33 33.039293 -116.908029 275 1396ft 0kts
28-Sep-20 07:34 33.039249 -116.908210 183 1396ft 0kts
28-Sep-20 07:35 33.039249 -116.908210 183 1396ft 0kts
28-Sep-20 07:36 33.039249 -116.908210 183 1396ft 0kts
28-Sep-20 07:37 33.039249 -116.908210 183 1396ft 0kts
28-Sep-20 07:38 33.039249 -116.908210 183 1396ft 0kts
28-Sep-20 07:39 33.039249 -116.908210 183 1396ft 0kts
28-Sep-20 07:40 33.039249 -116.908210 183 1396ft 0kts
28-Sep-20 07:41 33.039249 -116.908210 183 1396ft 0kts
28-Sep-20 07:42 33.039249 -116.908210 183 1396ft 0kts
28-Sep-20 07:43 33.039249 -116.908210 183 1396ft 0kts
28-Sep-20 07:43 33.039249 -116.908210 183 1396ft 0kts
28-Sep-20 07:45 33.039249 -116.908210 183 1396ft 0kts
28-Sep-20 07:46 33.039249 -116.908210 183 1396ft 0kts
28-Sep-20 07:46 33.039249 -116.908210 183 1396ft 0kts
28-Sep-20 07:48 33.039249 -116.908210 183 1396ft 0kts
28-Sep-20 07:48 33.039249 -116.908210 183 1396ft 0kts
28-Sep-20 07:49 33.039249 -116.908210 183 1396ft 0kts
28-Sep-20 07:50 33.039249 -116.908210 183 1396ft 0kts
28-Sep-20 07:51 33.039249 -116.908210 183 1396ft 0kts
28-Sep-20 07:52 33.039249 -116.908210 183 1396ft 0kts
28-Sep-20 07:53 33.038754 -116.907131 108 1396ft 9kts
28-Sep-20 07:54 33.038473 -116.907126 207 1396ft 4kts
28-Sep-20 07:55 33.039125 -116.915168 280 1457ft 81kts
28-Sep-20 07:56 33.044254 -116.944835 296 2163ft 101kts
28-Sep-20 07:57 33.044486 -116.977362 297 3105ft 97kts
28-Sep-20 07:58 33.062727 -117.000645 320 3926ft 100kts
28-Sep-20 07:59 33.086147 -117.027328 318 4505ft 131kts
28-Sep-20 08:00 33.101965 -117.064672 275 4462ft 134kts
28-Sep-20 08:01 33.108469 -117.108110 279 4459ft 132kts
28-Sep-20 08:02 33.115160 -117.151263 280 4459ft 132kts
28-Sep-20 08:03 33.121917 -117.194658 280 4459ft 132kts
28-Sep-20 08:04 33.128672 -117.237855 280 4459ft 132kts
28-Sep-20 08:05 33.135604 -117.281135 280 4459ft 132kts
28-Sep-20 08:06 33.142766 -117.324106 288 4456ft 132kts
28-Sep-20 08:07 33.168884 -117.353108 325 4469ft 129kts
28-Sep-20 08:08 33.196792 -117.380435 324 4477ft 129kts
28-Sep-20 08:09 33.224519 -117.407658 324 4500ft 129kts
28-Sep-20 08:10 33.247666 -117.439242 277 4501ft 132kts
28-Sep-20 08:11 33.251258 -117.482764 275 4499ft 128kts
28-Sep-20 08:12 33.255943 -117.524596 279 4500ft 126kts
28-Sep-20 08:13 33.261505 -117.565999 280 4500ft 126kts
28-Sep-20 08:14 33.267168 -117.607473 280 4500ft 126kts
28-Sep-20 08:15 33.272834 -117.648852 280 4500ft 126kts
28-Sep-20 08:16 33.278265 -117.690241 279 4498ft 126kts
28-Sep-20 08:17 33.283807 -117.731727 279 4498ft 126kts
28-Sep-20 08:18 33.289429 -117.773270 277 4507ft 128kts
28-Sep-20 08:19 33.295094 -117.815137 277 4507ft 129kts
28-Sep-20 08:20 33.296012 -117.857808 263 4451ft 131kts
28-Sep-20 08:21 33.297155 -117.900796 278 4458ft 129kts
28-Sep-20 08:22 33.305885 -117.942672 281 4459ft 129kts
28-Sep-20 08:23 33.313276 -117.984613 280 4496ft 129kts
28-Sep-20 08:24 33.319958 -118.026919 279 4496ft 129kts
28-Sep-20 08:25 33.326296 -118.069310 278 4496ft 129kts
28-Sep-20 08:26 33.332372 -118.111717 279 4496ft 129kts
28-Sep-20 08:27 33.338345 -118.154241 279 4496ft 129kts
28-Sep-20 08:28 33.344332 -118.196819 279 4497ft 129kts
28-Sep-20 08:29 33.350462 -118.239300 287 4494ft 130kts
28-Sep-20 08:30 33.363024 -118.280290 290 4497ft 132kts
28-Sep-20 08:31 33.375858 -118.321652 290 4497ft 133kts
28-Sep-20 08:32 33.388738 -118.363091 290 4497ft 133kts
28-Sep-20 08:33 33.401445 -118.404787 290 4497ft 133kts
28-Sep-20 08:34 33.423572 -118.440539 323 4083ft 142kts
28-Sep-20 08:35 33.413402 -118.469376 153 3364ft 117kts
28-Sep-20 08:36 33.408164 -118.433659 89 2560ft 113kts
28-Sep-20 08:37 33.424129 -118.404958 84 2318ft 90kts
28-Sep-20 08:38 33.410042 -118.407787 219 1715ft 83kts
28-Sep-20 08:39 33.403844 -118.416751 189 1570ft 10kts
28-Sep-20 08:40 33.403164 -118.415783 321 1570ft 0kts

Navigation Log

Ident Type
Flight plan parsing failed, navigation log unavailable